Loreto International Airport

MMLT · 南下加利福尼亞州, 墨西哥

METAR的历史 MMLT · Loreto International Airport

下面你可以看到过去几天的METARs。 选择年份以浏览从2007年开始的旧METAR。

2024年7月16日

时间 代码 天气 温度 能见度 天花板 METAR/SPECI
06:53
V
31 °C 10 mi - 270° 270° 10 kt METAR MMLT 161353Z 27010KT 10SM FEW160 31/18 A2990 RMK 8/030 HZY RTS

2024年7月15日

时间 代码 天气 温度 能见度 天花板 METAR/SPECI
18:40
V
31 °C 10 mi - 170° 170° 6 kt METAR MMLT 160140Z 17006KT 10SM SKC 31/25 A2983
17:40
V
32 °C 10 mi - 360° 360° 0 kt METAR MMLT 160040Z 00000KT 10SM SKC 32/25 A2981
16:40
V
33 °C 8 mi - 050° 050° 10 kt METAR MMLT 152340Z 05010KT 8SM SKC 33/23 A2981 RMK SLP095 HZY
15:40
V
32 °C 8 mi - 050° 050° 10 kt METAR MMLT 152240Z 05010KT 8SM SKC 32/23 A2983 RMK HZY ISOL CU W
14:41
V
32 °C 10 mi - 070° 070° 13 kt METAR MMLT 152141Z 07013KT 10SM FEW060 32/23 A2986 RMK 8/100
13:40
V
32 °C 10 mi - 070° 070° 15 kt METAR MMLT 152040Z 07015KT 10SM FEW060 32/23 A2989 RMK SLP122 8/100
12:40
V
33 °C 10 mi - 070° 070° 9 kt METAR MMLT 151940Z 07009KT 10SM FEW060 33/22 A2991 RMK 8/100
11:53
V
33 °C 10 mi - 070° 070° 9 kt METAR MMLT 151853Z 07009KT 10SM FEW060 33/23 A2993 RMK 8/100
10:47
V
32 °C 10 mi - 140° 140° 10 kt METAR MMLT 151747Z 14010KT 10SM FEW050 32/23 A2993 RMK SLP135 8/100
09:45
V
32 °C 10 mi - 100° 100° 10 kt METAR MMLT 151645Z 10010KT 10SM FEW200 32/22 A2994 RMK 8/030
08:42
V
31 °C 10 mi - 360° 360° 0 kt METAR MMLT 151542Z 00000KT 10SM FEW200 31/24 A2995 RMK 8/030
07:40
V
32 °C 10 mi - 360° 360° 0 kt METAR MMLT 151440Z 00000KT 10SM FEW220 32/23 A2995 RMK SLP142 8/005
06:53
V
28 °C 10 mi - 360° 360° 0 kt METAR MMLT 151353Z 00000KT 10SM FEW220 28/24 A2994 RMK 8/005 HZY RTS

2024年7月14日

时间 代码 天气 温度 能见度 天花板 METAR/SPECI
18:40
V
29 °C 10 mi 24.000 ft 140° 140° 6 kt METAR MMLT 150140Z 14006KT 10SM FEW040CB SCT140 BKN240 29/24 A2992 RMK 8/363 HZY CB SE
17:40
V
29 °C 8 mi 14.000 ft 140° 140° 12 kt METAR MMLT 150040Z 14012KT 8SM SCT040CB BKN140 BKN240 29/24 A2992 RMK 8/363 HZY CB VC W
16:40
V
31 °C 8 mi 14.000 ft 160° 160° 8 kt METAR MMLT 142340Z 16008KT 8SM SCT040 BKN140 BKN240 31/24 A2992 RMK SLP132 8/463 HZY
15:40
V
29 °C 8 mi 14.000 ft 160° 160° 8 kt METAR MMLT 142240Z 16008KT 8SM SCT040 BKN140 BKN240 29/24 A2994 RMK 8/463 HZY LWR VSBY SE
14:40
V
30 °C 7 mi 13.000 ft 160° 160° 17 kt METAR MMLT 142140Z 16017KT 7SM SCT030 BKN130 OVC200 30/23 A2996 RMK 8/963 BINOVC RA IN VC SOUTH
13:42
V
31 °C 10 mi 12.000 ft 160° 160° 14 kt METAR MMLT 142042Z 16014KT 10SM SCT030 BKN120 OVC220 31/23 A2998 RMK SLP152 8/963 BINOVC TS IN VC
12:41
V
30 °C 10 mi 15.000 ft 160° 160° 15 kt METAR MMLT 141941Z 16015KT 10SM SCT030 BKN150 30/23 A2999 RMK 8/530 HZY
11:42
V
31 °C 10 mi 15.000 ft 140° 140° 12 kt METAR MMLT 141842Z 14012KT 10SM SCT030 BKN150 31/24 A3000 RMK 8/53/ HZY
10:46
V
32 °C 9 mi 15.000 ft 360° 360° 0 kt METAR MMLT 141746Z 00000KT 9SM SCT030 BKN150 32/22 A3000 RMK SLP159 8/290 HZY
09:48
V
30 °C 9 mi 15.000 ft 140° 140° 10 kt METAR MMLT 141648Z 14010KT 9SM SCT030 BKN150 30/23 A3000 RMK 8/590 HZY
09:00
V
29 °C 9 mi 15.000 ft 360° 360° 0 kt METAR MMLT 141600Z RTD 00000KT 9SM FEW020 BKN150 29/24 A3000 RMK 8/230 HZY DSNT TCU FRMG N
07:52
V
29 °C 9 mi - 360° 360° 0 kt METAR MMLT 141452Z 00000KT 9SM FEW020 SCT150 29/25 A2999 RMK SLP156 8/130 HZY DSNT TCU FRMG NNW
07:07
V
27 °C 9 mi - 360° 360° 0 kt METAR MMLT 141407Z RTD 00000KT 9SM FEW020 SCT150 27/26 A3000 RMK 8/130 DSNT TCU FRMG NNW HZY RTS
报告变更